sensor_id;sensor_type;location;lat;lon;timestamp;pressure;altitude;pressure_sealevel;temperature;humidity
29433;BME280;16405;53.964;13.448;2023-02-19T00:02:14;100890.63;;;1.36;100.00
29433;BME280;16405;53.964;13.448;2023-02-19T00:04:40;100894.06;;;1.38;100.00
29433;BME280;16405;53.964;13.448;2023-02-19T00:07:15;100888.88;;;1.37;100.00
29433;BME280;16405;53.964;13.448;2023-02-19T00:09:43;100893.22;;;1.33;100.00
29433;BME280;16405;53.964;13.448;2023-02-19T00:12:08;100889.78;;;1.31;100.00
29433;BME280;16405;53.964;13.448;2023-02-19T00:14:41;100884.59;;;1.31;100.00
29433;BME280;16405;53.964;13.448;2023-02-19T00:17:10;100874.22;;;1.31;100.00
29433;BME280;16405;53.964;13.448;2023-02-19T00:19:36;100874.22;;;1.31;100.00
29433;BME280;16405;53.964;13.448;2023-02-19T00:22:09;100869.88;;;1.33;100.00
29433;BME280;16405;53.964;13.448;2023-02-19T00:24:35;100868.13;;;1.35;100.00
29433;BME280;16405;53.964;13.448;2023-02-19T00:27:00;100861.19;;;1.36;100.00
29433;BME280;16405;53.964;13.448;2023-02-19T00:29:29;100862.09;;;1.35;100.00
29433;BME280;16405;53.964;13.448;2023-02-19T00:31:57;100858.59;;;1.37;100.00
29433;BME280;16405;53.964;13.448;2023-02-19T00:34:26;100849.13;;;1.36;100.00
29433;BME280;16405;53.964;13.448;2023-02-19T00:36:52;100849.97;;;1.37;100.00
29433;BME280;16405;53.964;13.448;2023-02-19T00:39:18;100860.34;;;1.38;100.00
29433;BME280;16405;53.964;13.448;2023-02-19T00:41:44;100857.72;;;1.40;100.00
29433;BME280;16405;53.964;13.448;2023-02-19T00:44:18;100863.78;;;1.40;100.00
29433;BME280;16405;53.964;13.448;2023-02-19T00:46:46;100841.31;;;1.36;100.00
29433;BME280;16405;53.964;13.448;2023-02-19T00:49:23;100845.63;;;1.37;100.00
29433;BME280;16405;53.964;13.448;2023-02-19T00:51:51;100845.63;;;1.40;100.00
29433;BME280;16405;53.964;13.448;2023-02-19T00:54:17;100843.03;;;1.40;100.00
29433;BME280;16405;53.964;13.448;2023-02-19T00:56:51;100849.03;;;1.42;100.00
29433;BME280;16405;53.964;13.448;2023-02-19T00:59:17;100849.88;;;1.46;100.00
29433;BME280;16405;53.964;13.448;2023-02-19T01:01:43;100849.03;;;1.47;100.00
29433;BME280;16405;53.964;13.448;2023-02-19T01:04:18;100850.75;;;1.48;100.00
29433;BME280;16405;53.964;13.448;2023-02-19T01:06:46;100848.13;;;1.53;100.00
29433;BME280;16405;53.964;13.448;2023-02-19T01:09:22;100844.66;;;1.51;100.00
29433;BME280;16405;53.964;13.448;2023-02-19T01:11:51;100844.66;;;1.54;100.00
29433;BME280;16405;53.964;13.448;2023-02-19T01:14:16;100836.88;;;1.52;100.00
29433;BME280;16405;53.964;13.448;2023-02-19T01:16:51;100841.19;;;1.53;100.00
29433;BME280;16405;53.964;13.448;2023-02-19T01:19:20;100842.03;;;1.57;100.00
29433;BME280;16405;53.964;13.448;2023-02-19T01:21:50;100830.78;;;1.55;100.00
29433;BME280;16405;53.964;13.448;2023-02-19T01:24:19;100841.19;;;1.55;100.00
29433;BME280;16405;53.964;13.448;2023-02-19T01:26:45;100835.13;;;1.56;100.00
29433;BME280;16405;53.964;13.448;2023-02-19T01:29:10;100838.53;;;1.59;100.00
29433;BME280;16405;53.964;13.448;2023-02-19T01:31:41;100844.63;;;1.60;100.00
29433;BME280;16405;53.964;13.448;2023-02-19T01:34:10;100844.63;;;1.57;100.00
29433;BME280;16405;53.964;13.448;2023-02-19T01:36:37;100839.44;;;1.57;100.00
29433;BME280;16405;53.964;13.448;2023-02-19T01:39:05;100838.59;;;1.55;100.00
29433;BME280;16405;53.964;13.448;2023-02-19T01:41:38;100833.38;;;1.56;100.00
29433;BME280;16405;53.964;13.448;2023-02-19T01:46:42;100832.50;;;1.57;100.00
29433;BME280;16405;53.964;13.448;2023-02-19T01:49:13;100833.38;;;1.56;100.00
29433;BME280;16405;53.964;13.448;2023-02-19T01:54:32;100832.50;;;1.59;100.00
29433;BME280;16405;53.964;13.448;2023-02-19T01:57:05;100827.31;;;1.59;100.00
29433;BME280;16405;53.964;13.448;2023-02-19T01:59:33;100842.84;;;1.62;100.00
29433;BME280;16405;53.964;13.448;2023-02-19T02:01:59;100828.16;;;1.62;100.00
29433;BME280;16405;53.964;13.448;2023-02-19T02:04:34;100827.25;;;1.65;100.00
29433;BME280;16405;53.964;13.448;2023-02-19T02:07:04;100816.06;;;1.60;100.00
29433;BME280;16405;53.964;13.448;2023-02-19T02:09:51;100820.38;;;1.61;100.00
29433;BME280;16405;53.964;13.448;2023-02-19T02:12:36;100825.53;;;1.66;100.00
29433;BME280;16405;53.964;13.448;2023-02-19T02:15:02;100820.31;;;1.67;100.00
29433;BME280;16405;53.964;13.448;2023-02-19T02:18:05;100820.28;;;1.70;100.00
29433;BME280;16405;53.964;13.448;2023-02-19T02:21:16;100825.47;;;1.73;100.00
29433;BME280;16405;53.964;13.448;2023-02-19T02:36:05;100840.06;;;1.85;100.00
29433;BME280;16405;53.964;13.448;2023-02-19T02:38:43;100836.59;;;1.86;100.00
29433;BME280;16405;53.964;13.448;2023-02-19T02:41:13;100830.53;;;1.89;100.00
29433;BME280;16405;53.964;13.448;2023-02-19T02:43:47;100827.06;;;1.88;100.00
29433;BME280;16405;53.964;13.448;2023-02-19T02:46:32;100829.63;;;1.91;100.00
29433;BME280;16405;53.964;13.448;2023-02-19T02:49:14;100833.91;;;1.94;100.00
29433;BME280;16405;53.964;13.448;2023-02-19T02:51:49;100836.53;;;1.92;100.00
29433;BME280;16405;53.964;13.448;2023-02-19T02:54:30;100844.31;;;1.97;100.00
29433;BME280;16405;53.964;13.448;2023-02-19T02:57:19;100845.16;;;1.97;100.00
29433;BME280;16405;53.964;13.448;2023-02-19T02:59:46;100846.00;;;1.99;100.00
29433;BME280;16405;53.964;13.448;2023-02-19T03:02:28;100840.75;;;2.02;100.00
29433;BME280;16405;53.964;13.448;2023-02-19T03:05:19;100842.50;;;2.03;100.00
29433;BME280;16405;53.964;13.448;2023-02-19T03:08:30;100845.97;;;2.02;100.00
29433;BME280;16405;53.964;13.448;2023-02-19T03:11:06;100844.22;;;2.03;100.00
29433;BME280;16405;53.964;13.448;2023-02-19T03:14:10;100845.06;;;2.07;100.00
29433;BME280;16405;53.964;13.448;2023-02-19T03:17:09;100842.47;;;2.08;100.00
29433;BME280;16405;53.964;13.448;2023-02-19T03:20:02;100843.31;;;2.10;100.00
29433;BME280;16405;53.964;13.448;2023-02-19T03:22:33;100844.16;;;2.12;100.00
29433;BME280;16405;53.964;13.448;2023-02-19T03:25:34;100841.50;;;2.15;100.00
29433;BME280;16405;53.964;13.448;2023-02-19T03:28:21;100844.09;;;2.15;100.00
29433;BME280;16405;53.964;13.448;2023-02-19T03:31:14;100848.41;;;2.19;100.00
29433;BME280;16405;53.964;13.448;2023-02-19T03:33:56;100842.34;;;2.19;100.00
29433;BME280;16405;53.964;13.448;2023-02-19T03:36:23;100847.50;;;2.23;100.00
29433;BME280;16405;53.964;13.448;2023-02-19T03:39:08;100842.25;;;2.26;100.00
29433;BME280;16405;53.964;13.448;2023-02-19T03:42:02;100845.69;;;2.29;100.00
29433;BME280;16405;53.964;13.448;2023-02-19T03:48:33;100831.00;;;2.26;100.00
29433;BME280;16405;53.964;13.448;2023-02-19T03:51:12;100842.28;;;2.25;100.00
29433;BME280;16405;53.964;13.448;2023-02-19T03:54:16;100841.44;;;2.23;100.00
29433;BME280;16405;53.964;13.448;2023-02-19T03:57:10;100839.75;;;2.19;100.00
29433;BME280;16405;53.964;13.448;2023-02-19T04:00:03;100836.25;;;2.20;100.00
29433;BME280;16405;53.964;13.448;2023-02-19T04:02:48;100841.44;;;2.21;100.00
29433;BME280;16405;53.964;13.448;2023-02-19T04:05:38;100834.50;;;2.23;100.00
29433;BME280;16405;53.964;13.448;2023-02-19T04:08:17;100835.41;;;2.21;100.00
29433;BME280;16405;53.964;13.448;2023-02-19T04:10:45;100831.94;;;2.20;100.00
29433;BME280;16405;53.964;13.448;2023-02-19T04:16:07;100840.66;;;2.13;100.00
29433;BME280;16405;53.964;13.448;2023-02-19T04:18:40;100840.72;;;2.09;100.00
29433;BME280;16405;53.964;13.448;2023-02-19T04:21:08;100850.22;;;2.11;100.00
29433;BME280;16405;53.964;13.448;2023-02-19T04:23:59;100851.94;;;2.12;100.00
29433;BME280;16405;53.964;13.448;2023-02-19T04:26:25;100845.91;;;2.07;100.00
29433;BME280;16405;53.964;13.448;2023-02-19T04:28:51;100840.72;;;2.07;100.00
29433;BME280;16405;53.964;13.448;2023-02-19T04:31:17;100851.16;;;2.05;100.00
29433;BME280;16405;53.964;13.448;2023-02-19T04:33:42;100856.34;;;2.04;100.00
29433;BME280;16405;53.964;13.448;2023-02-19T04:36:09;100858.09;;;2.03;100.00
29433;BME280;16405;53.964;13.448;2023-02-19T04:38:41;100855.44;;;2.07;100.00
29433;BME280;16405;53.964;13.448;2023-02-19T04:41:09;100860.66;;;2.05;100.00
29433;BME280;16405;53.964;13.448;2023-02-19T04:43:35;100859.78;;;2.04;100.00
29433;BME280;16405;53.964;13.448;2023-02-19T04:46:06;100865.88;;;2.03;100.00
29433;BME280;16405;53.964;13.448;2023-02-19T04:48:35;100861.59;;;1.96;100.00
29433;BME280;16405;53.964;13.448;2023-02-19T04:51:07;100860.78;;;1.93;100.00
29433;BME280;16405;53.964;13.448;2023-02-19T04:53:36;100862.50;;;1.92;100.00
29433;BME280;16405;53.964;13.448;2023-02-19T04:56:16;100872.03;;;1.95;100.00
29433;BME280;16405;53.964;13.448;2023-02-19T04:58:43;100869.44;;;1.92;100.00
29433;BME280;16405;53.964;13.448;2023-02-19T05:01:10;100866.88;;;1.89;100.00
29433;BME280;16405;53.964;13.448;2023-02-19T05:03:36;100868.63;;;1.87;100.00
29433;BME280;16405;53.964;13.448;2023-02-19T05:06:25;100872.97;;;1.84;100.00
29433;BME280;16405;53.964;13.448;2023-02-19T05:08:52;100880.75;;;1.84;100.00
29433;BME280;16405;53.964;13.448;2023-02-19T05:11:21;100874.72;;;1.82;100.00
29433;BME280;16405;53.964;13.448;2023-02-19T05:13:57;100877.34;;;1.79;100.00
29433;BME280;16405;53.964;13.448;2023-02-19T05:16:22;100876.50;;;1.76;100.00
29433;BME280;16405;53.964;13.448;2023-02-19T05:18:48;100880.00;;;1.72;100.00
29433;BME280;16405;53.964;13.448;2023-02-19T05:21:22;100890.41;;;1.69;100.00
29433;BME280;16405;53.964;13.448;2023-02-19T05:23:48;100884.38;;;1.67;100.00
29433;BME280;16405;53.964;13.448;2023-02-19T05:26:26;100885.22;;;1.69;100.00
29433;BME280;16405;53.964;13.448;2023-02-19T05:29:02;100889.59;;;1.59;100.00
29433;BME280;16405;53.964;13.448;2023-02-19T05:31:28;100889.59;;;1.57;100.00
29433;BME280;16405;53.964;13.448;2023-02-19T05:33:55;100887.88;;;1.58;100.00
29433;BME280;16405;53.964;13.448;2023-02-19T05:36:21;100892.22;;;1.53;100.00
29433;BME280;16405;53.964;13.448;2023-02-19T05:38:59;100896.56;;;1.51;100.00
29433;BME280;16405;53.964;13.448;2023-02-19T05:41:28;100893.97;;;1.54;100.00
29433;BME280;16405;53.964;13.448;2023-02-19T05:44:03;100892.22;;;1.53;100.00
29433;BME280;16405;53.964;13.448;2023-02-19T05:46:29;100902.66;;;1.47;100.00
29433;BME280;16405;53.964;13.448;2023-02-19T05:48:56;100900.91;;;1.49;100.00
29433;BME280;16405;53.964;13.448;2023-02-19T05:51:33;100906.13;;;1.47;100.00
29433;BME280;16405;53.964;13.448;2023-02-19T05:53:59;100915.69;;;1.40;100.00
29433;BME280;16405;53.964;13.448;2023-02-19T05:56:35;100914.81;;;1.40;100.00
29433;BME280;16405;53.964;13.448;2023-02-19T05:59:15;100918.28;;;1.37;100.00
29433;BME280;16405;53.964;13.448;2023-02-19T06:01:41;100918.31;;;1.34;100.00
29433;BME280;16405;53.964;13.448;2023-02-19T06:04:09;100917.44;;;1.34;100.00
29433;BME280;16405;53.964;13.448;2023-02-19T06:06:45;100926.09;;;1.34;100.00
29433;BME280;16405;53.964;13.448;2023-02-19T06:09:12;100932.16;;;1.29;100.00
29433;BME280;16405;53.964;13.448;2023-02-19T06:11:47;100932.19;;;1.26;100.00
29433;BME280;16405;53.964;13.448;2023-02-19T06:14:13;100935.66;;;1.21;100.00
29433;BME280;16405;53.964;13.448;2023-02-19T06:16:39;100933.97;;;1.17;100.00
29433;BME280;16405;53.964;13.448;2023-02-19T06:19:12;100930.50;;;1.17;100.00
29433;BME280;16405;53.964;13.448;2023-02-19T06:21:38;100937.41;;;1.16;100.00
29433;BME280;16405;53.964;13.448;2023-02-19T06:24:07;100939.16;;;1.13;100.00
29433;BME280;16405;53.964;13.448;2023-02-19T06:26:39;100939.19;;;1.08;100.00
29433;BME280;16405;53.964;13.448;2023-02-19T06:29:05;100936.59;;;1.07;100.00
29433;BME280;16405;53.964;13.448;2023-02-19T06:31:31;100933.13;;;1.08;100.00
29433;BME280;16405;53.964;13.448;2023-02-19T06:34:01;100942.63;;;1.06;100.00
29433;BME280;16405;53.964;13.448;2023-02-19T06:36:36;100958.22;;;1.02;100.00
29433;BME280;16405;53.964;13.448;2023-02-19T06:39:12;100963.44;;;0.99;100.00
29433;BME280;16405;53.964;13.448;2023-02-19T06:41:38;100953.06;;;0.99;100.00
29433;BME280;16405;53.964;13.448;2023-02-19T06:44:04;100955.63;;;1.02;100.00
29433;BME280;16405;53.964;13.448;2023-02-19T06:46:30;100956.47;;;1.05;100.00
29433;BME280;16405;53.964;13.448;2023-02-19T06:48:56;100962.53;;;1.07;100.00
29433;BME280;16405;53.964;13.448;2023-02-19T06:51:31;100969.47;;;1.06;100.00
29433;BME280;16405;53.964;13.448;2023-02-19T06:53:58;100970.31;;;1.07;100.00
29433;BME280;16405;53.964;13.448;2023-02-19T06:56:37;100976.34;;;1.09;100.00
29433;BME280;16405;53.964;13.448;2023-02-19T06:59:14;100990.16;;;1.15;100.00
29433;BME280;16405;53.964;13.448;2023-02-19T07:01:44;100997.06;;;1.21;100.00
29433;BME280;16405;53.964;13.448;2023-02-19T07:04:17;100994.41;;;1.36;100.00
29433;BME280;16405;53.964;13.448;2023-02-19T07:06:43;100991.72;;;1.49;100.00
29433;BME280;16405;53.964;13.448;2023-02-19T07:09:10;101000.28;;;1.66;100.00
29433;BME280;16405;53.964;13.448;2023-02-19T07:11:44;101008.81;;;1.90;100.00
29433;BME280;16405;53.964;13.448;2023-02-19T07:14:17;101010.44;;;2.08;100.00
29433;BME280;16405;53.964;13.448;2023-02-19T07:16:48;101018.09;;;2.26;100.00
29433;BME280;16405;53.964;13.448;2023-02-19T07:19:14;101011.22;;;2.16;100.00
29433;BME280;16405;53.964;13.448;2023-02-19T07:21:41;101017.25;;;2.22;100.00
29433;BME280;16405;53.964;13.448;2023-02-19T07:24:08;101025.63;;;2.58;100.00
29433;BME280;16405;53.964;13.448;2023-02-19T07:26:43;101032.00;;;3.13;100.00
29433;BME280;16405;53.964;13.448;2023-02-19T07:29:09;101035.44;;;3.86;100.00
29433;BME280;16405;53.964;13.448;2023-02-19T07:31:35;101045.56;;;5.12;95.22
29433;BME280;16405;53.964;13.448;2023-02-19T07:34:01;101040.97;;;5.25;89.81
29433;BME280;16405;53.964;13.448;2023-02-19T07:36:34;101055.63;;;5.32;86.60
29433;BME280;16405;53.964;13.448;2023-02-19T07:39:03;101054.34;;;5.51;84.15
29433;BME280;16405;53.964;13.448;2023-02-19T07:41:29;101057.72;;;5.57;83.08
29433;BME280;16405;53.964;13.448;2023-02-19T07:44:02;101071.94;;;6.26;81.25
29433;BME280;16405;53.964;13.448;2023-02-19T07:46:28;101064.75;;;6.35;79.85
29433;BME280;16405;53.964;13.448;2023-02-19T07:49:04;101070.75;;;5.58;79.88
29433;BME280;16405;53.964;13.448;2023-02-19T07:51:31;101059.91;;;4.37;82.68
29433;BME280;16405;53.964;13.448;2023-02-19T07:53:57;101057.16;;;3.87;85.95
29433;BME280;16405;53.964;13.448;2023-02-19T07:56:23;101082.78;;;5.22;86.65
29433;BME280;16405;53.964;13.448;2023-02-19T07:58:49;101085.44;;;6.45;82.12
29433;BME280;16405;53.964;13.448;2023-02-19T08:01:23;101104.94;;;7.36;78.32
29433;BME280;16405;53.964;13.448;2023-02-19T08:04:14;101119.91;;;7.95;75.01
29433;BME280;16405;53.964;13.448;2023-02-19T08:06:41;101105.47;;;7.80;73.89
29433;BME280;16405;53.964;13.448;2023-02-19T08:09:08;101123.78;;;8.39;73.23
29433;BME280;16405;53.964;13.448;2023-02-19T08:11:34;101109.78;;;7.18;73.18
29433;BME280;16405;53.964;13.448;2023-02-19T08:14:27;101110.41;;;6.21;76.01
29433;BME280;16405;53.964;13.448;2023-02-19T08:16:54;101117.56;;;6.51;76.83
29433;BME280;16405;53.964;13.448;2023-02-19T08:19:21;101127.06;;;7.26;75.51
29433;BME280;16405;53.964;13.448;2023-02-19T08:21:56;101139.69;;;7.43;74.87
29433;BME280;16405;53.964;13.448;2023-02-19T08:24:24;101124.53;;;6.52;75.42
29433;BME280;16405;53.964;13.448;2023-02-19T08:26:59;101139.78;;;6.32;77.32
29433;BME280;16405;53.964;13.448;2023-02-19T08:29:36;101131.56;;;5.66;78.87
29433;BME280;16405;53.964;13.448;2023-02-19T08:32:05;101144.66;;;5.65;80.57
29433;BME280;16405;53.964;13.448;2023-02-19T08:34:41;101138.97;;;5.44;81.57
29433;BME280;16405;53.964;13.448;2023-02-19T08:37:07;101161.72;;;5.83;81.03
29433;BME280;16405;53.964;13.448;2023-02-19T08:39:33;101157.53;;;5.74;81.30
29433;BME280;16405;53.964;13.448;2023-02-19T08:42:00;101149.47;;;5.40;81.54
29433;BME280;16405;53.964;13.448;2023-02-19T08:44:44;101160.28;;;4.67;83.29
29433;BME280;16405;53.964;13.448;2023-02-19T08:47:16;101162.63;;;4.23;85.56
29433;BME280;16405;53.964;13.448;2023-02-19T08:50:01;101173.28;;;4.06;87.26
29433;BME280;16405;53.964;13.448;2023-02-19T08:52:33;101182.69;;;4.18;88.16
29433;BME280;16405;53.964;13.448;2023-02-19T08:55:01;101179.22;;;4.80;87.34
29433;BME280;16405;53.964;13.448;2023-02-19T08:57:27;101193.91;;;5.38;85.45
29433;BME280;16405;53.964;13.448;2023-02-19T09:00:00;101198.78;;;6.05;83.60
29433;BME280;16405;53.964;13.448;2023-02-19T09:02:29;101216.81;;;6.17;81.68
29433;BME280;16405;53.964;13.448;2023-02-19T09:04:56;101207.56;;;6.43;80.06
29433;BME280;16405;53.964;13.448;2023-02-19T09:07:31;101209.25;;;6.84;79.55
29433;BME280;16405;53.964;13.448;2023-02-19T09:10:31;101208.47;;;7.16;77.90
29433;BME280;16405;53.964;13.448;2023-02-19T09:13:21;101224.06;;;7.21;75.97
29433;BME280;16405;53.964;13.448;2023-02-19T09:15:49;101230.47;;;7.45;76.86
29433;BME280;16405;53.964;13.448;2023-02-19T09:18:15;101220.88;;;7.08;75.87
29433;BME280;16405;53.964;13.448;2023-02-19T09:20:50;101213.19;;;7.02;75.74
29433;BME280;16405;53.964;13.448;2023-02-19T09:23:20;101213.72;;;6.81;75.98
29433;BME280;16405;53.964;13.448;2023-02-19T09:26:05;101217.59;;;6.63;76.60
29433;BME280;16405;53.964;13.448;2023-02-19T09:28:50;101221.47;;;6.45;76.17
29433;BME280;16405;53.964;13.448;2023-02-19T09:31:19;101220.63;;;6.44;77.57
29433;BME280;16405;53.964;13.448;2023-02-19T09:33:51;101225.91;;;6.41;77.56
29433;BME280;16405;53.964;13.448;2023-02-19T09:36:23;101238.44;;;6.25;77.99
29433;BME280;16405;53.964;13.448;2023-02-19T09:38:56;101243.03;;;6.15;78.88
29433;BME280;16405;53.964;13.448;2023-02-19T09:41:54;101240.53;;;6.08;79.55
29433;BME280;16405;53.964;13.448;2023-02-19T09:44:40;101239.47;;;5.70;79.71
29433;BME280;16405;53.964;13.448;2023-02-19T09:47:30;101246.97;;;5.40;80.63
29433;BME280;16405;53.964;13.448;2023-02-19T09:50:16;101249.59;;;5.39;82.16
29433;BME280;16405;53.964;13.448;2023-02-19T09:53:04;101248.97;;;5.24;81.92
29433;BME280;16405;53.964;13.448;2023-02-19T09:55:44;101261.75;;;5.41;83.58
29433;BME280;16405;53.964;13.448;2023-02-19T09:58:37;101268.84;;;5.33;83.49
29433;BME280;16405;53.964;13.448;2023-02-19T10:01:10;101263.97;;;5.11;83.22
29433;BME280;16405;53.964;13.448;2023-02-19T10:03:44;101265.44;;;5.28;83.23
29433;BME280;16405;53.964;13.448;2023-02-19T10:06:23;101271.69;;;5.18;82.27
29433;BME280;16405;53.964;13.448;2023-02-19T10:11:53;101283.44;;;4.87;83.36
29433;BME280;16405;53.964;13.448;2023-02-19T10:14:35;101277.81;;;4.55;81.28
29433;BME280;16405;53.964;13.448;2023-02-19T10:17:22;101286.69;;;4.41;80.24
29433;BME280;16405;53.964;13.448;2023-02-19T10:19:51;101288.78;;;4.08;80.09
29433;BME280;16405;53.964;13.448;2023-02-19T10:22:27;101310.13;;;4.43;81.83
29433;BME280;16405;53.964;13.448;2023-02-19T10:25:06;101309.41;;;4.30;80.53
29433;BME280;16405;53.964;13.448;2023-02-19T10:27:35;101302.00;;;3.92;79.52
29433;BME280;16405;53.964;13.448;2023-02-19T10:30:29;101306.19;;;4.05;79.06
29433;BME280;16405;53.964;13.448;2023-02-19T10:33:23;101315.38;;;4.40;79.33
29433;BME280;16405;53.964;13.448;2023-02-19T10:36:04;101321.38;;;4.45;78.83
29433;BME280;16405;53.964;13.448;2023-02-19T10:38:46;101333.44;;;4.57;79.42
29433;BME280;16405;53.964;13.448;2023-02-19T10:41:21;101336.56;;;4.83;80.05
29433;BME280;16405;53.964;13.448;2023-02-19T10:44:24;101332.88;;;5.01;79.13
29433;BME280;16405;53.964;13.448;2023-02-19T10:47:04;101347.31;;;5.25;78.80
29433;BME280;16405;53.964;13.448;2023-02-19T10:49:40;101341.34;;;5.17;76.62
29433;BME280;16405;53.964;13.448;2023-02-19T10:52:49;101354.22;;;5.29;77.22
29433;BME280;16405;53.964;13.448;2023-02-19T10:58:24;101353.81;;;4.95;74.17
29433;BME280;16405;53.964;13.448;2023-02-19T11:01:13;101358.34;;;4.81;72.91
29433;BME280;16405;53.964;13.448;2023-02-19T11:03:50;101362.13;;;4.55;73.58
29433;BME280;16405;53.964;13.448;2023-02-19T11:06:25;101364.22;;;4.24;73.82
29433;BME280;16405;53.964;13.448;2023-02-19T11:12:31;101372.91;;;4.23;75.60
29433;BME280;16405;53.964;13.448;2023-02-19T11:15:37;101393.53;;;4.47;75.79
29433;BME280;16405;53.964;13.448;2023-02-19T11:18:38;101382.09;;;4.58;75.26
29433;BME280;16405;53.964;13.448;2023-02-19T11:21:28;101391.53;;;4.69;74.12
29433;BME280;16405;53.964;13.448;2023-02-19T11:24:01;101399.25;;;4.77;72.31
29433;BME280;16405;53.964;13.448;2023-02-19T11:26:56;101408.81;;;4.78;72.05
29433;BME280;16405;53.964;13.448;2023-02-19T11:29:36;101408.75;;;4.84;71.69
29433;BME280;16405;53.964;13.448;2023-02-19T11:35:33;101419.97;;;4.92;71.38
29433;BME280;16405;53.964;13.448;2023-02-19T11:38:04;101434.41;;;5.20;71.75
29433;BME280;16405;53.964;13.448;2023-02-19T11:40:43;101414.50;;;5.14;70.41
29433;BME280;16405;53.964;13.448;2023-02-19T11:49:14;101423.19;;;5.11;69.98
29433;BME280;16405;53.964;13.448;2023-02-19T11:52:05;101438.72;;;5.24;71.09
29433;BME280;16405;53.964;13.448;2023-02-19T11:54:49;101437.94;;;5.16;70.58
29433;BME280;16405;53.964;13.448;2023-02-19T11:57:54;101453.59;;;5.19;70.17
29433;BME280;16405;53.964;13.448;2023-02-19T12:01:00;101455.38;;;5.15;69.11
29433;BME280;16405;53.964;13.448;2023-02-19T12:10:47;101463.31;;;5.04;69.02
29433;BME280;16405;53.964;13.448;2023-02-19T12:14:03;101478.09;;;5.05;68.34
29433;BME280;16405;53.964;13.448;2023-02-19T12:17:15;101485.16;;;4.97;67.13
29433;BME280;16405;53.964;13.448;2023-02-19T12:35:26;101487.81;;;4.00;69.18
29433;BME280;16405;53.964;13.448;2023-02-19T12:38:44;101490.16;;;4.27;71.10
29433;BME280;16405;53.964;13.448;2023-02-19T12:42:27;101490.06;;;4.41;70.31
29433;BME280;16405;53.964;13.448;2023-02-19T12:45:41;101483.91;;;4.47;69.64
29433;BME280;16405;53.964;13.448;2023-02-19T12:48:34;101493.38;;;4.57;66.38
29433;BME280;16405;53.964;13.448;2023-02-19T12:51:53;101501.22;;;4.60;66.66
29433;BME280;16405;53.964;13.448;2023-02-19T12:55:30;101501.31;;;4.45;63.66
29433;BME280;16405;53.964;13.448;2023-02-19T12:58:01;101510.00;;;4.50;63.86
29433;BME280;16405;53.964;13.448;2023-02-19T13:00:54;101509.00;;;4.63;66.23
29433;BME280;16405;53.964;13.448;2023-02-19T13:03:37;101514.16;;;4.66;66.45
29433;BME280;16405;53.964;13.448;2023-02-19T13:09:40;101519.31;;;4.76;67.69
29433;BME280;16405;53.964;13.448;2023-02-19T13:12:48;101511.53;;;4.68;64.94
29433;BME280;16405;53.964;13.448;2023-02-19T13:21:29;101526.34;;;4.66;64.56
29433;BME280;16405;53.964;13.448;2023-02-19T13:24:36;101537.69;;;4.65;62.25
29433;BME280;16405;53.964;13.448;2023-02-19T13:36:39;101559.22;;;4.85;62.35
29433;BME280;16405;53.964;13.448;2023-02-19T13:39:16;101560.88;;;4.96;63.19
29433;BME280;16405;53.964;13.448;2023-02-19T13:41:57;101565.28;;;4.89;61.68
29433;BME280;16405;53.964;13.448;2023-02-19T13:44:39;101564.44;;;4.85;62.34
29433;BME280;16405;53.964;13.448;2023-02-19T13:48:01;101567.88;;;4.89;62.01
29433;BME280;16405;53.964;13.448;2023-02-19T13:50:33;101568.84;;;4.80;60.32
29433;BME280;16405;53.964;13.448;2023-02-19T14:04:56;101568.00;;;4.75;65.39
29433;BME280;16405;53.964;13.448;2023-02-19T14:07:48;101551.44;;;4.84;66.14
29433;BME280;16405;53.964;13.448;2023-02-19T14:10:57;101552.38;;;4.73;65.06
29433;BME280;16405;53.964;13.448;2023-02-19T14:19:08;101539.28;;;4.80;65.21
29433;BME280;16405;53.964;13.448;2023-02-19T14:21:39;101559.38;;;4.70;64.16
29433;BME280;16405;53.964;13.448;2023-02-19T14:24:28;101555.00;;;4.73;65.14
29433;BME280;16405;53.964;13.448;2023-02-19T14:26:56;101563.69;;;4.74;65.19
29433;BME280;16405;53.964;13.448;2023-02-19T14:29:29;101567.97;;;4.80;65.54
29433;BME280;16405;53.964;13.448;2023-02-19T14:32:04;101565.38;;;4.77;64.82
29433;BME280;16405;53.964;13.448;2023-02-19T14:34:33;101555.94;;;4.65;64.36
29433;BME280;16405;53.964;13.448;2023-02-19T14:37:20;101561.16;;;4.62;64.29
29433;BME280;16405;53.964;13.448;2023-02-19T14:39:47;101560.31;;;4.63;64.98
29433;BME280;16405;53.964;13.448;2023-02-19T14:42:24;101569.00;;;4.63;64.56
29433;BME280;16405;53.964;13.448;2023-02-19T14:45:05;101569.88;;;4.62;64.66
29433;BME280;16405;53.964;13.448;2023-02-19T14:47:34;101575.97;;;4.61;64.74
29433;BME280;16405;53.964;13.448;2023-02-19T14:50:25;101562.22;;;4.41;64.54
29433;BME280;16405;53.964;13.448;2023-02-19T14:52:53;101554.50;;;4.30;64.62
29433;BME280;16405;53.964;13.448;2023-02-19T14:55:45;101566.66;;;4.28;64.83
29433;BME280;16405;53.964;13.448;2023-02-19T14:58:17;101572.75;;;4.30;64.97
29433;BME280;16405;53.964;13.448;2023-02-19T15:00:53;101565.81;;;4.23;64.97
29433;BME280;16405;53.964;13.448;2023-02-19T15:03:38;101572.91;;;4.01;64.53
29433;BME280;16405;53.964;13.448;2023-02-19T15:06:14;101576.41;;;3.95;64.35
29433;BME280;16405;53.964;13.448;2023-02-19T15:08:57;101575.59;;;3.93;64.49
29433;BME280;16405;53.964;13.448;2023-02-19T15:11:34;101575.56;;;3.92;64.99
29433;BME280;16405;53.964;13.448;2023-02-19T15:14:14;101576.50;;;3.83;64.43
29433;BME280;16405;53.964;13.448;2023-02-19T15:17:04;101574.72;;;3.86;65.87
29433;BME280;16405;53.964;13.448;2023-02-19T15:19:34;101579.09;;;3.81;65.06